Flight Track Log - Related Links

Times and Time Zones

All times are in EDT time to prevent confusion due to time zone crossing. See the N693C flight status page for this flight to view local times or setup timezone preferences in your user account.

Time Position Orientation Groundspeed Altitude Reporting Facility
EDT Latitude Longitude Course Direction KTS MPH feet Rate Location/Type
Thu 11:44:34 AM 39.3167 -85.9000 360° North 98 113 2,500  Level Indianapolis TRACON
Thu 11:45:16 AM 39.3167 -85.9000 122° Southeast 104 120 3,100 813 Climbing Indianapolis TRACON
Thu 11:46:10 AM 39.3022 -85.8703 122° Southeast 119 137 3,800 828 Climbing Indianapolis Center
Thu 11:47:12 AM 39.2747 -85.8372 137° Southeast 129 148 4,700 774 Climbing Indianapolis Center
Thu 11:48:14 AM 39.2350 -85.8303 172° South 142 163 5,400 726 Climbing Indianapolis Center
Thu 11:49:16 AM 39.1983 -85.8186 166° South 138 159 6,200 871 Climbing Indianapolis Center
Thu 11:50:18 AM 39.1589 -85.8067 167° South 125 144 7,200 774 Climbing Indianapolis Center
Thu 11:51:20 AM 39.1244 -85.7967 167° South 125 144 7,800 629 Climbing Indianapolis Center
Thu 11:52:22 AM 39.0892 -85.7858 167° South 129 148 8,500 677 Climbing Indianapolis Center
Thu 11:53:24 AM 39.0531 -85.7750 167° South 133 153 9,200 629 Climbing Indianapolis Center
Thu 11:54:26 AM 39.0161 -85.7642 167° South 134 154 9,800 624 Climbing Indianapolis Center
Thu 11:55:29 AM 38.9814 -85.7539 167° South 132 152 10,500 624 Climbing Indianapolis Center
Thu 11:56:31 AM 38.9411 -85.7408 166° South 125 144 11,100 290 Climbing Indianapolis Center
Thu 11:57:33 AM 38.9011 -85.7297 168° South 139 160 11,100  Level Indianapolis Center
Thu 11:58:35 AM 38.8528 -85.7153 167° South 171 197 11,100  Level Indianapolis Center
Thu 11:59:37 AM 38.8042 -85.7006 167° South 178 205 11,100  Level Indianapolis Center
Thu 12:00:39 PM 38.7547 -85.6847 166° South 182 209 11,100  Level Indianapolis Center
Thu 12:01:41 PM 38.7044 -85.6700 167° South 186 214 11,100  Level Indianapolis Center
Thu 12:02:43 PM 38.6447 -85.6522 167° South 184 212 11,100  Level Indianapolis Center
Thu 12:03:45 PM 38.5975 -85.6386 167° South 186 214 11,100  Level Indianapolis Center
Thu 12:04:47 PM 38.5678 -85.5875 127° Southeast 194 223 11,100  Level Indianapolis Center
Thu 12:05:49 PM 38.5361 -85.5336 127° Southeast 189 217 11,100  Level Indianapolis Center
Thu 12:06:51 PM 38.5000 -85.4653 124° Southeast 190 219 11,100  Level Indianapolis Center
Thu 12:07:53 PM 38.4750 -85.4175 124° Southeast 192 221 11,100  Level Indianapolis Center
Thu 12:08:55 PM 38.4403 -85.3553 125° Southeast 192 221 11,100  Level Indianapolis Center
Thu 12:09:57 PM 38.4281 -85.2900 103° East 189 217 11,100  Level Indianapolis Center
Thu 12:10:59 PM 38.4100 -85.2267 110° East 191 220 11,100  Level Indianapolis Center
Thu 12:12:01 PM 38.3919 -85.1500 107° East 192 221 11,100  Level Indianapolis Center
Thu 12:13:03 PM 38.3731 -85.0878 111° Southeast 190 219 11,100  Level Indianapolis Center
Thu 12:14:05 PM 38.3575 -85.0217 107° East 192 221 11,100  Level Indianapolis Center
Thu 12:15:07 PM 38.3392 -84.9581 110° East 192 221 11,100  Level Indianapolis Center
Thu 12:16:09 PM 38.3214 -84.8942 110° East 192 221 11,100  Level Indianapolis Center
Thu 12:17:11 PM 38.3053 -84.8317 108° East 189 217 11,100  Level Indianapolis Center
Thu 12:18:13 PM 38.2842 -84.7597 110° East 187 215 11,100  Level Indianapolis Center
Thu 12:19:15 PM 38.2669 -84.6978 109° East 185 213 11,100  Level Indianapolis Center
Thu 12:20:17 PM 38.2522 -84.6350 107° East 185 213 11,100  Level Indianapolis Center
Thu 12:21:20 PM 38.2325 -84.5756 113° Southeast 183 211 11,100  Level Indianapolis Center
Thu 12:22:22 PM 38.2175 -84.5131 107° East 183 211 11,100  Level Indianapolis Center
Thu 12:23:23 PM 38.1972 -84.4408 110° East 185 213 11,100  Level Indianapolis Center
Thu 12:24:26 PM 38.1808 -84.3808 109° East 182 209 11,100  Level Indianapolis Center
Thu 12:25:28 PM 38.1631 -84.3200 110° East 182 209 11,100  Level Indianapolis Center
Thu 12:26:30 PM 38.1458 -84.2600 110° East 181 208 11,100  Level Indianapolis Center
Thu 12:27:32 PM 38.1292 -84.2000 109° East 181 208 11,100  Level Indianapolis Center
Thu 12:28:34 PM 38.1136 -84.1358 107° East 185 213 11,100  Level Indianapolis Center
Thu 12:29:36 PM 38.0919 -84.0667 112° Southeast 181 208 11,100  Level Indianapolis Center
Thu 12:30:38 PM 38.0756 -84.0058 109° East 181 208 11,100 145 Level Indianapolis Center
Thu 12:31:40 PM 38.0583 -83.9458 110° East 180 207 11,400 484 Climbing Indianapolis Center
Thu 12:32:42 PM 38.0444 -83.8978 110° East 154 177 12,100 339 Climbing Indianapolis Center
Thu 12:33:44 PM 38.0292 -83.8467 111° Southeast 155 178 12,100  Level Indianapolis Center
Thu 12:34:46 PM 38.0125 -83.7864 109° East 177 204 12,100  Level Indianapolis Center
Thu 12:35:48 PM 37.9928 -83.7136 109° East 186 214 12,100  Level Indianapolis Center
Thu 12:36:50 PM 37.9753 -83.6525 110° East 185 213 12,100  Level Indianapolis Center
Thu 12:37:52 PM 37.9578 -83.5900 110° East 188 216 12,100  Level Indianapolis Center
Thu 12:38:54 PM 37.9386 -83.5283 111° Southeast 188 216 12,100  Level Indianapolis Center
Thu 12:39:56 PM 37.9153 -83.4683 116° Southeast 189 217 12,100  Level Indianapolis Center
Thu 12:40:58 PM 37.8906 -83.3975 114° Southeast 188 216 12,100  Level Indianapolis Center
Thu 12:42:00 PM 37.8703 -83.3400 114° Southeast 181 208 12,100  Level Indianapolis Center
Thu 12:43:02 PM 37.8478 -83.2792 115° Southeast 188 216 12,100  Level Indianapolis Center
Thu 12:44:04 PM 37.8250 -83.2219 117° Southeast 183 211 12,100  Level Indianapolis Center
Thu 12:45:06 PM 37.7981 -83.1647 121° Southeast 187 215 12,100  Level Indianapolis Center
Thu 12:46:08 PM 37.7789 -83.1031 111° Southeast 187 215 12,100  Level Indianapolis Center
Thu 12:47:10 PM 37.7611 -83.0306 107° East 185 213 12,100  Level Indianapolis Center
Thu 12:48:12 PM 37.7433 -82.9667 109° East 189 217 12,100  Level Indianapolis Center
Thu 12:49:14 PM 37.7253 -82.9028 110° East 192 221 12,100  Level Indianapolis Center
Thu 12:50:16 PM 37.7036 -82.8414 114° Southeast 194 223 12,100  Level Indianapolis Center
Thu 12:51:19 PM 37.6725 -82.7908 128° Southeast 184 212 12,100  Level Indianapolis Center
Thu 12:52:21 PM 37.6428 -82.7372 125° Southeast 186 214 12,100  Level Indianapolis Center
Thu 12:53:23 PM 37.6089 -82.6775 126° Southeast 181 208 12,100  Level Indianapolis Center
Thu 12:54:25 PM 37.5792 -82.6242 125° Southeast 184 212 12,100  Level Indianapolis Center
Thu 12:55:27 PM 37.5503 -82.5708 124° Southeast 185 213 12,100  Level Indianapolis Center
Thu 12:56:29 PM 37.5211 -82.5192 125° Southeast 182 209 12,100  Level Indianapolis Center
Thu 12:57:31 PM 37.4917 -82.4664 125° Southeast 183 211 12,100  Level Indianapolis Center
Thu 12:58:33 PM 37.4578 -82.4050 125° Southeast 182 209 12,100  Level Indianapolis Center
Thu 12:59:35 PM 37.4281 -82.3533 126° Southeast 183 211 12,100  Level Indianapolis Center
Thu 01:00:37 PM 37.3989 -82.3008 125° Southeast 182 209 12,100  Level Indianapolis Center
Thu 01:01:39 PM 37.3697 -82.2489 125° Southeast 182 209 12,100  Level Indianapolis Center
Thu 01:02:41 PM 37.3403 -82.1961 125° Southeast 182 209 12,100  Level Indianapolis Center
Thu 01:03:43 PM 37.3111 -82.1444 125° Southeast 182 209 12,100  Level Indianapolis Center
Thu 01:04:45 PM 37.2764 -82.0831 125° Southeast 184 212 12,100  Level Indianapolis Center
Thu 01:05:47 PM 37.2467 -82.0303 125° Southeast 185 213 12,100  Level Indianapolis Center
Thu 01:06:49 PM 37.2167 -81.9792 126° Southeast 182 209 12,100  Level Indianapolis Center
Thu 01:07:52 PM 37.1861 -81.9256 126° Southeast 187 215 12,100  Level Indianapolis Center
Thu 01:08:54 PM 37.1564 -81.8728 125° Southeast 185 213 12,100  Level Indianapolis Center
Thu 01:09:56 PM 37.1208 -81.8097 125° Southeast 188 216 12,100  Level Indianapolis Center
Thu 01:10:58 PM 37.0906 -81.7581 126° Southeast 186 214 12,100  Level Indianapolis Center
Thu 01:12:00 PM 37.0608 -81.7044 125° Southeast 186 214 12,100  Level Indianapolis Center
Thu 01:13:02 PM 37.0303 -81.6522 126° Southeast 186 214 12,100  Level Indianapolis Center
Thu 01:14:04 PM 37.0003 -81.5989 125° Southeast 187 215 12,100  Level Indianapolis Center
Thu 01:15:06 PM 36.9697 -81.5469 126° Southeast 186 214 12,100 -339 Level Indianapolis Center
Thu 01:16:08 PM 36.9364 -81.4861 124° Southeast 198 228 11,400 -484 Descending Indianapolis Center
Thu 01:17:10 PM 36.9022 -81.4275 126° Southeast 210 242 11,100 -145 Descending Indianapolis Center
Thu 01:18:12 PM 36.8653 -81.3644 126° Southeast 199 229 11,100  Level Indianapolis Center
Thu 01:18:42 PM 36.8461 -81.3411 136° Southeast 199 229 11,100  Level Atlanta Center
Thu 01:19:42 PM 36.8136 -81.2825 125° Southeast 199 229 11,100  Level Atlanta Center
Thu 01:20:42 PM 36.7853 -81.2292 124° Southeast 194 223 11,100 -50 Level Atlanta Center
Thu 01:21:42 PM 36.7547 -81.1758 126° Southeast 194 223 11,000 -50 Descending Atlanta Center
Thu 01:22:42 PM 36.7244 -81.1225 125° Southeast 187 215 11,000  Level Atlanta Center
Thu 01:23:42 PM 36.6939 -81.0692 126° Southeast 187 215 11,000  Level Atlanta Center
Thu 01:24:42 PM 36.6633 -81.0186 127° Southeast 181 208 11,000  Level Atlanta Center
Thu 01:25:42 PM 36.6308 -80.9631 126° Southeast 189 217 11,000  Level Atlanta Center
Thu 01:26:42 PM 36.5981 -80.9100 128° Southeast 189 217 11,000  Level Atlanta Center
Thu 01:27:42 PM 36.5697 -80.8567 123° Southeast 189 217 11,000  Level Atlanta Center
Thu 01:28:42 PM 36.5392 -80.8064 127° Southeast 189 217 11,000  Level Atlanta Center
Thu 01:29:42 PM 36.5128 -80.7531 122° Southeast 189 217 11,000  Level Atlanta Center
Thu 01:30:42 PM 36.4964 -80.6917 108° East 189 217 11,000  Level Atlanta Center
Thu 01:31:42 PM 36.4781 -80.6306 110° East 184 212 11,000  Level Atlanta Center
Thu 01:32:42 PM 36.4600 -80.5772 113° Southeast 184 212 11,000  Level Atlanta Center
Thu 01:33:42 PM 36.4436 -80.5158 108° East 184 212 11,000 -50 Level Atlanta Center
Thu 01:34:42 PM 36.4231 -80.4497 111° Southeast 190 219 10,900 -300 Descending Atlanta Center
Thu 01:35:42 PM 36.4003 -80.3864 114° Southeast 190 219 10,400 -550 Descending Atlanta Center
Thu 01:36:42 PM 36.3817 -80.3228 110° East 190 219 9,800 -600 Descending Atlanta Center
Thu 01:37:42 PM 36.3611 -80.2617 113° Southeast 195 224 9,200 -219 Descending Atlanta Center
Thu 01:39:00 PM 36.3102 -80.2157 144° Southeast  Level FlightAware Approximate
Thu 01:46:00 PM 36.1929 -79.8212 98° East  Level Estimated
Thu 01:47:00 PM 36.1662 -79.7711 123° Southeast  Level FlightAware Approximate
Thu 01:48:00 PM 36.1394 -79.7211 124° Southeast  Level FlightAware Approximate
Thu 01:49:00 PM 36.1126 -79.6711 124° Southeast  Level FlightAware Approximate
Thu 01:49:30 PM 36.1303 -79.5525 124° Southeast 191 220 7,000  Level Washington Center
Thu 01:50:00 PM 36.0858 -79.6212 124° Southeast  Level FlightAware Approximate
Thu 01:50:30 PM 36.1133 -79.4975 111° Southeast 174 200 7,000  Level Washington Center
Thu 01:51:00 PM 36.0590 -79.5713 124° Southeast  Level FlightAware Approximate
Thu 01:51:49 PM 36.0883 -79.4244 113° Southeast 177 204 7,000  Level Washington Center
Thu 01:52:00 PM 36.0322 -79.5214 124° Southeast  Level FlightAware Approximate
Thu 01:52:50 PM 36.0694 -79.3669 112° Southeast 177 204 7,000  Level Washington Center
Thu 01:53:00 PM 36.0053 -79.4716 124° Southeast  Level FlightAware Approximate
Thu 01:53:51 PM 36.0483 -79.3094 114° Southeast 178 205 6,800  Level Washington Center
Thu 01:54:00 PM 35.9784 -79.4218 124° Southeast  Level FlightAware Approximate
Thu 01:54:51 PM 36.0419 -79.2447 97° East 196 226 6,200  Level Washington Center
Thu 01:55:00 PM 35.9515 -79.3720 124° Southeast  Level FlightAware Approximate
Thu 01:55:41 PM 36.0394 -79.1883 93° East 209 241 5,700  Level Washington Center
Thu 01:56:42 PM 36.0372 -79.1189 92° East 209 241 5,100 -609 Descending Washington Center
Thu 01:57:49 PM 36.0353 -79.0494 92° East 190 219 4,400 -520 Descending Washington Center
Thu 01:58:49 PM 36.0331 -78.9800 92° East 188 216 4,000 -209 Descending Washington Center
Thu 01:59:44 PM 36.0303 -78.9311 94° East 171 197 4,000  Level Washington Center
Thu 02:00:45 PM 36.0339 -78.8694 86° East 165 190 4,000  Level Washington Center
Thu 02:01:55 PM 36.0400 -78.8031 83° East 167 192 4,000 -378 Level Washington Center
Thu 02:03:08 PM 36.0461 -78.7261 84° East 192 221 3,100 -764 Descending Washington Center
Thu 02:03:45 PM 36.0261 -78.6919 126° Southeast 197 227 2,600 -653 Descending Washington Center
Thu 02:04:49 PM 35.9894 -78.6572 143° Southeast 173 199 2,000 -295 Descending Washington Center
Thu 02:05:47 PM 35.9578 -78.6817 212° Southwest 140 161 2,000 -300 Level Washington Center
Thu 02:07:00 PM 35.9132 -78.7314 222° Southwest  Level FlightAware Approximate
Thu 02:07:49 PM 35.8994 -78.7536 222° Southwest 130 150 1,100  Level Washington Center

Login

Don't have an account? Register now (free) for customized features, flight alerts, and more!